Anza, California
Current Conditions -  °F | °C
As of 3:53 PM on Saturday 20 Dec 2014 (Local Time) from KPSP Reporting Station
Broken Clouds Broken Clouds  
Wind Chill: 64°   Ceiling: 20000
Heat Index: 64°   Visibility: 10mi
Dew Point: 42°   Wind: 5mph
Humidity: 45%   Direction: 180°S
Pressure: 30.08"   Gusts: NA
Location:  33.55°N, 116.67°W
Report Text: KPSP 202353Z 18004KT 10SM BKN200 18/06 A3008 RMK AO2 SLP186 T01780056 10194 20156 56011
Loading
Personal Weather Stations






























Interactive Weather Map New forecast layout! Learn more

10-Day Weather Forecast

Advertisements
Track Severe Weather on mobile